Aviation Digital Data Service (ADDS)

Output produced by METARs form (1443 UTC 20 September 2017)
found at http://www.aviationweather.gov/adds/metars/
 
TAF KBAB 201105Z 2011/2117 VRB06KT 9999 BKN100 QNH2988INS 
     BECMG 2014/2015 18009KT 9999 BKN040 QNH2984INS 
     BECMG 2018/2019 20012G18KT 9999 BKN050 OVC130 QNH2976INS 
     BECMG 2102/2103 VRB06KT 9999 FEW050 QNH2978INS TX26/2021Z TN12/2012Z
       
TAF AMD KBAD 201344Z 2013/2116 18004KT 9999 BKN016 QNH2991INS 
     TEMPO 2013/2015 SCT020 
     BECMG 2015/2016 20010G15KT 9999 SCT035 QNH2989INS 
     BECMG 2020/2021 17006KT 9999 FEW030 QNH2987INS 
     BECMG 2108/2109 18004KT 8000 BR BKN008 OVC020 QNH2993INS 
     BECMG 2114/2115 17007KT 9999 NSW SCT010 BKN025 QNH3000INS TX33/2020Z TN25/2013Z
       
KBAF 201120Z 2012/2112 01013G22KT P6SM OVC025 
     FM210000 36010G19KT P6SM OVC035 
     FM210300 36010KT P6SM BKN040
       
KBBD 201133Z 2012/2112 17007KT P6SM SCT020 
     TEMPO 2012/2014 BKN018 
     FM201500 18011G17KT P6SM FEW250 
     FM201800 18011G17KT P6SM SCT060 
     FM210000 16009KT P6SM SCT250 AMD NOT SKED
       
KBBG 201120Z 2012/2112 16007KT P6SM FEW250 
     TEMPO 2012/2013 5SM BR 
     FM201500 18011G17KT P6SM FEW250 
     FM210000 16006KT P6SM SKC
       
KBCB 201214Z 2012/2112 00000KT 4SM BR SCT080 
     FM201300 00000KT P6SM BKN080 
     FM201900 30004KT P6SM VCSH BKN050 
     FM202300 00000KT P6SM FEW060 
     FM210800 00000KT 2SM BR SCT020
       
KBCE 201120Z 2012/2112 21009KT P6SM SKC 
     FM201800 20016G24KT P6SM SKC 
     FM210200 20010G16KT P6SM SKC
       
KBDL 201120Z 2012/2118 01012KT P6SM OVC017 
     FM201500 36014G23KT P6SM OVC020 
     FM210200 36010KT P6SM BKN025 
     FM211300 36010G19KT P6SM SCT250
       
KBDR 201338Z 2014/2112 02018G29KT P6SM SCT025 
     FM201700 35019G29KT P6SM BKN035 BKN250 
     FM202200 35016G25KT P6SM SCT035 BKN250 
     FM210200 36013KT P6SM SCT025 BKN250
       
KBED 201120Z 2012/2112 03012G21KT 2SM -SHRA BR OVC005 
     FM201500 03015G25KT 4SM -SHRA BR OVC007 
     FM201800 03016G25KT P6SM VCSH OVC010 
     FM210000 02014G25KT 5SM BR OVC015 
     FM210400 01011G24KT P6SM OVC020
       
KBFD 201130Z 2012/2112 00000KT P6SM VCFG SCT003 
     FM201300 00000KT P6SM SKC 
     FM201500 01005KT P6SM SKC 
     FM210000 00000KT P6SM SKC 
     FM210600 00000KT P6SM VCFG SKC
       
KBFF 201120Z 2012/2112 28009KT P6SM BKN150 
     FM201800 22015G22KT P6SM SCT200 
     FM202000 18015G23KT P6SM FEW200 
     FM210000 14011KT P6SM BKN150
       
KBFI 201222Z 2012/2112 VRB03KT P6SM VCSH FEW006 BKN025 OVC050 
     TEMPO 2012/2016 -SHRA 
     FM201800 33006KT P6SM SCT030 BKN050 
     FM210400 18006KT P6SM BKN050
       
KBFL 201141Z 2012/2112 35006KT P6SM SKC 
     FM202300 32008G17KT P6SM FEW250 
     FM210900 32012G23KT P6SM BKN100
       
KBFM 201133Z 2012/2112 00000KT P6SM VCSH FEW015 SCT040 SCT250 
     TEMPO 2012/2013 5SM BR BKN015 
     FM201600 20005KT P6SM VCSH SCT025 BKN040 BKN250 
     TEMPO 2018/2022 5SM TSRA BKN035CB 
     FM210200 00000KT P6SM BKN250
       
KBGM 201139Z 2012/2112 VRB02KT P6SM SKC 
     FM201400 36008KT P6SM SCT110 
     FM210000 35004KT P6SM FEW200
       
KBGR 201120Z 2012/2112 05005KT 1SM BR VCSH OVC002 
     FM201400 05006KT P6SM BKN005 
     FM201800 04007KT P6SM BKN013 
     FM202100 05006KT P6SM BKN035 
     FM210500 04008KT P6SM SCT027
       
KBHB 201120Z 2012/2112 07008KT 5SM -RA BR OVC003 
     FM201400 06009KT 3SM BR VCSH OVC003 
     FM201800 06009KT 1SM BR BKN006 
     FM202200 06008KT P6SM BKN035 
     FM210300 05009KT P6SM BKN027 
     FM210600 05011KT P6SM BKN004 
     FM211000 05012KT P6SM SCT003
       
KBHM 201120Z 2012/2112 00000KT P6SM SKC 
     FM201800 32005KT P6SM SCT050
       
TAF KBIF 201402Z 2014/2120 27009KT 9999 SKC QNH3000INS 
     BECMG 2018/2019 23012G20KT 9999 FEW090 QNH2992INS 
     BECMG 2100/2101 VRB06KT 9999 SCT090 QNH2993INS 
     BECMG 2117/2118 23009KT 9999 FEW090 QNH2994INS TX32/2022Z TN20/2112Z
       
KBIH 201135Z 2012/2112 34011KT P6SM SKC 
     FM201400 VRB06KT P6SM FEW250 
     FM202200 26012G18KT P6SM SCT250 
     FM210200 35011KT P6SM SCT250
       
KBIL 201127Z 2012/2112 25014KT P6SM FEW150 
     FM201400 22015G24KT P6SM BKN070 
     FM201800 22018G31KT P6SM BKN080 
     FM202100 25018G30KT P6SM VCSH BKN080 
     FM210300 25010KT P6SM SCT080 
     FM210600 27007KT P6SM VCSH BKN070
       
KBIS 201126Z 2012/2112 23011KT P6SM SKC 
     FM201600 22013G21KT P6SM FEW060 FEW200 
     FM210000 19011KT P6SM FEW110 FEW250 
     FM210600 16010KT P6SM FEW140 SCT200 WS020/20040KT 
     FM210900 15009KT P6SM BKN130 BKN140
       
TAF AMD KBIX 201345Z 2013/2116 VRB03KT 9999 SCT040 QNH2995INS 
     BECMG 2020/2021 22009KT 8000 -SHRA BKN040 QNH2995INS 
     TEMPO 2021/2100 33015G25KT 4800 -TSRA OVC025CB 
     BECMG 2100/2101 VRB06KT 9999 NSW BKN025 QNH2996INS 
     BECMG 2107/2108 VRB06KT 4800 BR BKN020 QNH2997INS 
     BECMG 2114/2115 VRB06KT 9999 NSW SCT030 QNH2999INS TX31/2021Z TN26/2013Z
       
KBJC 201121Z 2012/2112 18006KT P6SM FEW220 
     FM201500 33007KT P6SM SCT220 
     FM202000 08007KT P6SM FEW120 SCT220 
     FM210100 32006KT P6SM FEW220 
     FM210400 25006KT P6SM FEW220
       
KBJI 201122Z 2012/2112 23010KT P6SM BKN012 
     TEMPO 2012/2014 3SM BR BKN005 
     FM201400 26011KT P6SM BKN035 
     FM201800 26012KT P6SM SCT150 
     FM210100 20007KT P6SM SKC
       
KBKE 201307Z 2013/2112 16012KT P6SM -RA OVC050 
     FM202100 32014G21KT P6SM -SHRA OVC050 
     FM210200 VRB06KT P6SM VCSH BKN060 OVC100
       
TAF KBKF 200903Z 2009/2115 14009KT 9999 FEW100 SCT200 QNH2989INS 
     BECMG 2017/2018 17012KT 9999 SCT100 QNH2984INS 
     TEMPO 2020/2102 17012G20KT 510004 
     BECMG 2105/2106 20009KT 9999 FEW100 QNH2983INS TX25/2023Z TN03/2012Z
       
KBKW 201210Z 2012/2112 00000KT 5SM BR SCT035 
     FM201300 25005KT P6SM BKN050 
     FM201600 28005KT P6SM VCTS BKN040CB 
     FM202300 32004KT P6SM SCT150 
     FM210900 00000KT 5SM BR SCT150
       
KBLF 201429Z 2014/2112 25004KT P6SM SCT015 BKN022 
     FM201900 30005KT P6SM VCSH BKN050 
     FM202300 00000KT P6SM SCT050 
     FM210600 00000KT P6SM BKN025
       
KBLH 201125Z 2012/2112 16005KT P6SM SKC 
     FM202100 21012KT P6SM SKC
       
KBLI 201214Z 2012/2112 02006KT 5SM SHRA FEW006 SCT015 OVC035 
     TEMPO 2012/2015 2SM +SHRA BKN006 BKN015 OVC035 
     FM201700 VRB03KT P6SM SCT015 BKN025 BKN060 
     FM201800 29006KT P6SM BKN060 
     FM210300 19006KT P6SM BKN060
       
TAF KBLV 200800Z 2008/2114 16006KT 9999 SKC QNH2989INS 
     BECMG 2011/2012 17006KT 8000 BR SKC QNH2990INS 
     BECMG 2015/2016 20012G18KT 9999 NSW FEW050 QNH2990INS 
     BECMG 2022/2023 19006KT 9999 SKC QNH2989INS TX33/2021Z TN19/2012Z
       
KBMG 201412Z 2014/2112 14005KT 4SM BR BKN002 
     FM201500 15004KT 5SM BR BKN006 
     FM201600 17004KT P6SM SCT010 SCT200 
     FM210000 16004KT P6SM FEW050 FEW200
       
KBMI 201136Z 2012/2112 17007KT P6SM SKC 
     FM201700 19012KT P6SM SCT250 
     FM210100 18006KT P6SM SCT250
       
KBNA 201132Z 2012/2112 22006KT P6SM SCT040 
     FM210000 18002KT P6SM SCT150 
     FM210600 00000KT 4SM BR SCT150 
     FM210900 00000KT 1SM BR SCT005
       
KBNO 201121Z 2012/2112 17007KT P6SM -SHRA BKN040 OVC070 
     FM201700 25015G25KT P6SM -SHRA OVC040 
     FM210200 26010KT P6SM BKN070
       
KBOI 201121Z 2012/2112 12015KT P6SM -SHRA OVC060 
     FM201800 32015G25KT P6SM -SHRA OVC040 
     FM210000 33010KT P6SM BKN070
       
KBOS 201120Z 2012/2118 03015G25KT 4SM -SHRA BR OVC006 
     FM201800 03019G30KT 6SM -SHRA BR OVC010 
     FM210200 01016G32KT 5SM BR OVC020 
     FM210500 01016G31KT P6SM OVC025 
     FM211400 02020G34KT P6SM BKN250
       
KBPI 201133Z 2012/2112 17007KT P6SM BKN070 
     FM201700 23011G17KT P6SM SCT050 BKN070 
     FM202000 26018G26KT P6SM VCSH SCT040 BKN060 
     FM210600 30009KT P6SM VCSH SCT020 BKN040
       
KBPK 201133Z 2012/2112 00000KT P6SM SKC 
     FM201400 17008G16KT P6SM SCT050 
     FM210200 18003KT P6SM SKC
       
KBPT 201411Z 2014/2112 19007KT P6SM VCSH SCT020 SCT200 
     TEMPO 2014/2018 TSRA BKN018 OVC023CB 
     FM210000 16007KT P6SM SCT250
       
KBRD 201433Z 2015/2112 26011G19KT P6SM SCT040 
     FM201800 27013G20KT P6SM SCT050 
     FM210000 23003KT P6SM SKC
       
KBRL 201128Z 2012/2112 17010KT P6SM SCT120 WS020/20030KT 
     FM201500 20015G22KT P6SM SCT100 
     FM202100 22011KT P6SM BKN100 
     FM210300 VRB04KT P6SM BKN080 
     PROB30 2103/2107 6SM -TSRA BKN040CB
       
KBRO 201129Z 2012/2112 16007KT P6SM VCSH SCT025 
     FM201600 15014G20KT P6SM VCSH SCT035 BKN050 
     FM210100 13012KT P6SM FEW050 
     FM210600 15008KT P6SM SCT025
       
KBTL 201417Z 2014/2112 20006KT P6SM BKN015 
     TEMPO 2014/2015 BKN009 
     FM201500 17004KT 5SM BR BKN025 
     FM201530 19005KT P6SM SCT035 
     FM210500 17004KT 4SM BR BKN250
       
KBTM 201128Z 2012/2112 VRB03KT P6SM VCSH OVC050 
     FM201500 26010G20KT 6SM -SNRA BKN025 OVC030 
     TEMPO 2015/2017 3SM -SN BR OVC010 
     FM201900 27008G15KT P6SM VCSH BKN040 OVC050 
     FM210000 22015G25KT P6SM OVC060
       
KBTR 201120Z 2012/2112 00000KT P6SM SKC 
     FM201700 19005KT P6SM BKN030 BKN110 
     FM211000 00000KT 5SM BR FEW010 SCT200
       
KBTV 201136Z 2012/2112 00000KT P6SM SCT005 SCT200 
     FM201300 VRB03KT P6SM SCT200 
     FM201500 35007KT P6SM SCT150 
     FM210600 35004KT 5SM BR SCT200
       
KBUF 201120Z 2012/2112 00000KT P6SM FEW200 
     FM201400 06004KT P6SM SCT200 
     FM210000 VRB03KT P6SM FEW200
       
KBUR 201441Z 2015/2112 00000KT P6SM SCT020 
     FM201700 17010KT P6SM SCT025 
     FM210400 VRB03KT P6SM OVC020
       
KBVI 201135Z 2012/2112 00000KT P6SM BKN080 
     FM201800 00000KT P6SM SCT050 
     FM210000 00000KT P6SM SKC
       
KBVO 201209Z 2012/2112 18006KT P6SM FEW120 SCT250 
     FM201600 19012G18KT P6SM SCT050 
     FM210000 17007KT P6SM BKN050
       
KBWG 201128Z 2012/2112 00000KT 6SM BR SKC 
     TEMPO 2012/2013 2SM BR SKC 
     FM201330 VRB03KT P6SM FEW035 SCT130 
     FM210600 00000KT 4SM BR FEW200 
     FM210900 00000KT 1 1/2SM BR FEW100
       
KBWI 201120Z 2012/2118 31005KT P6SM FEW040 FEW250 
     FM201500 32008G16KT P6SM SCT050 SCT200 
     FM210000 32005KT P6SM SCT200 
     FM210300 VRB03KT P6SM SCT200 
     FM211500 36007KT P6SM SCT050 SCT200
       
KBYI 201140Z 2012/2112 22011KT P6SM SCT040 OVC080 
     FM201500 25015G25KT P6SM VCSH SCT040 OVC060 
     FM210100 25012KT P6SM -RA BKN020 OVC040
       
KBZN 201120Z 2012/2118 17007KT P6SM BKN060 
     FM201500 16006KT P6SM VCSH OVC045 
     FM201800 25013G22KT P6SM VCSH BKN050 
     FM202100 25017G27KT P6SM SCT050 BKN070 
     PROB30 2021/2103 6SM -SHRA BKN050 BKN060 
     FM210400 17007KT P6SM BKN050 
     PROB30 2104/2110 6SM -SHRA BKN020 OVC045